createdAt,value
2023-06-17T00:01:00.083Z,8.27
2023-06-17T00:03:28.932Z,9.80
2023-06-17T00:05:57.676Z,8.60
2023-06-17T00:08:26.132Z,10.27
2023-06-17T00:10:54.738Z,10.48
2023-06-17T00:13:23.266Z,10.45
2023-06-17T00:15:57.872Z,10.85
2023-06-17T00:18:28.062Z,11.10
2023-06-17T00:20:59.159Z,8.18
2023-06-17T00:23:27.842Z,8.85
2023-06-17T00:25:56.447Z,9.07
2023-06-17T00:28:24.939Z,11.88
2023-06-17T00:30:54.385Z,11.70
2023-06-17T00:33:24.565Z,12.13
2023-06-17T00:35:55.981Z,8.70
2023-06-17T00:38:24.597Z,10.93
2023-06-17T00:40:53.229Z,10.57
2023-06-17T00:43:21.678Z,10.00
2023-06-17T00:45:51.311Z,9.35
2023-06-17T00:48:20.159Z,10.68
2023-06-17T00:50:51.200Z,12.45
2023-06-17T00:53:21.252Z,13.20
2023-06-17T00:55:51.185Z,11.15
2023-06-17T00:58:21.056Z,11.02
2023-06-17T01:00:49.984Z,9.88
2023-06-17T01:03:20.798Z,10.53
2023-06-17T01:05:51.663Z,12.00
2023-06-17T01:08:27.448Z,8.53
2023-06-17T01:10:59.897Z,10.20
2023-06-17T01:13:31.295Z,10.52
2023-06-17T01:16:00.140Z,10.93
2023-06-17T01:18:28.967Z,9.87
2023-06-17T01:20:57.930Z,10.93
2023-06-17T01:23:34.312Z,10.52
2023-06-17T01:26:05.188Z,9.55
2023-06-17T01:28:38.351Z,10.93
2023-06-17T01:31:09.323Z,12.07
2023-06-17T01:33:39.413Z,14.53
2023-06-17T01:36:12.378Z,15.97
2023-06-17T01:38:42.828Z,10.63
2023-06-17T01:41:17.934Z,15.77
2023-06-17T01:43:47.168Z,16.57
2023-06-17T01:46:15.826Z,15.20
2023-06-17T01:48:44.779Z,11.27
2023-06-17T01:51:13.260Z,13.13
2023-06-17T01:53:41.990Z,14.03
2023-06-17T01:56:10.809Z,13.43
2023-06-17T01:58:41.020Z,13.83
2023-06-17T02:01:09.551Z,13.50
2023-06-17T02:03:38.470Z,17.63
2023-06-17T02:06:08.408Z,16.23
2023-06-17T02:08:36.925Z,14.97
2023-06-17T02:11:05.594Z,13.60
2023-06-17T02:13:34.033Z,13.83
2023-06-17T02:16:03.989Z,13.13
2023-06-17T02:18:36.273Z,20.37
2023-06-17T02:21:04.882Z,15.97
2023-06-17T02:23:33.319Z,13.27
2023-06-17T02:26:01.770Z,13.90
2023-06-17T02:28:30.313Z,13.33
2023-06-17T02:30:59.056Z,13.57
2023-06-17T02:33:31.074Z,15.07
2023-06-17T02:35:59.691Z,14.27
2023-06-17T02:38:29.454Z,13.27
2023-06-17T02:40:58.994Z,13.90
2023-06-17T02:43:27.522Z,14.07
2023-06-17T02:45:58.578Z,13.33
2023-06-17T02:48:27.122Z,15.03
2023-06-17T02:50:58.114Z,15.17
2023-06-17T02:53:26.992Z,15.13
2023-06-17T02:55:56.752Z,15.23
2023-06-17T02:58:27.097Z,16.67
2023-06-17T03:00:58.987Z,11.57
2023-06-17T03:03:36.072Z,13.97
2023-06-17T03:06:08.510Z,13.50
2023-06-17T03:08:42.243Z,14.47
2023-06-17T03:11:10.977Z,13.57
2023-06-17T03:13:44.000Z,15.47
2023-06-17T03:16:21.029Z,14.70
2023-06-17T03:18:50.263Z,13.43
2023-06-17T03:21:20.214Z,13.30
2023-06-17T03:23:49.914Z,15.03
2023-06-17T03:26:19.338Z,15.47
2023-06-17T03:28:48.218Z,17.40
2023-06-17T03:31:21.901Z,17.43
2023-06-17T03:33:53.082Z,14.93
2023-06-17T03:36:25.897Z,14.63
2023-06-17T03:38:56.743Z,14.63
2023-06-17T03:41:25.809Z,16.13
2023-06-17T03:43:54.293Z,15.03
2023-06-17T03:46:23.475Z,15.67
2023-06-17T03:48:52.096Z,14.93
2023-06-17T03:51:20.811Z,14.93
2023-06-17T03:53:52.030Z,14.90
2023-06-17T03:56:20.882Z,13.03
2023-06-17T03:58:49.355Z,15.63
2023-06-17T04:01:17.898Z,15.47
2023-06-17T04:03:47.081Z,15.17
2023-06-17T04:06:17.777Z,14.73
2023-06-17T04:08:48.282Z,17.37
2023-06-17T04:11:23.008Z,17.20
2023-06-17T04:13:51.499Z,11.83
2023-06-17T04:16:20.108Z,14.00
2023-06-17T04:18:48.625Z,15.57
2023-06-17T04:21:17.711Z,13.83
2023-06-17T04:23:47.853Z,14.70
2023-06-17T04:26:16.589Z,18.87
2023-06-17T04:28:48.446Z,14.57
2023-06-17T04:31:17.793Z,14.87
2023-06-17T04:33:48.138Z,15.47
2023-06-17T04:36:18.573Z,20.00
2023-06-17T04:38:51.063Z,13.37
2023-06-17T04:41:20.417Z,15.00
2023-06-17T04:43:52.802Z,12.60
2023-06-17T04:46:22.648Z,14.30
2023-06-17T04:48:51.882Z,15.93
2023-06-17T04:51:20.417Z,13.83
2023-06-17T04:53:49.162Z,14.10
2023-06-17T04:56:20.922Z,18.03
2023-06-17T04:58:51.056Z,12.13
2023-06-17T05:01:20.602Z,11.93
2023-06-17T05:03:49.216Z,13.10
2023-06-17T05:06:17.815Z,15.40
2023-06-17T05:08:46.343Z,14.60
2023-06-17T05:11:16.272Z,13.03
2023-06-17T05:14:13.290Z,14.80
2023-06-17T05:16:44.749Z,13.73
2023-06-17T05:19:13.425Z,11.97
2023-06-17T05:21:43.075Z,13.67
2023-06-17T05:24:13.522Z,13.53
2023-06-17T05:26:42.605Z,14.60
2023-06-17T05:29:14.117Z,13.30
2023-06-17T05:31:46.258Z,11.15
2023-06-17T05:34:14.771Z,12.43
2023-06-17T05:36:43.242Z,15.73
2023-06-17T05:39:12.693Z,12.02
2023-06-17T05:41:41.233Z,11.65
2023-06-17T05:44:09.860Z,12.35
2023-06-17T05:46:38.582Z,14.90
2023-06-17T05:49:08.607Z,11.57
2023-06-17T05:51:37.341Z,11.38
2023-06-17T05:54:06.304Z,11.18
2023-06-17T05:56:34.786Z,11.23
2023-06-17T05:59:03.835Z,10.38
2023-06-17T06:01:37.841Z,15.90
2023-06-17T06:04:07.967Z,11.32
2023-06-17T06:06:36.689Z,14.73
2023-06-17T06:09:07.036Z,10.70
2023-06-17T06:11:36.506Z,11.55
2023-06-17T06:14:05.900Z,13.65
2023-06-17T06:16:34.789Z,10.52
2023-06-17T06:19:03.328Z,11.85
2023-06-17T06:21:33.169Z,11.48
2023-06-17T06:24:02.083Z,11.95
2023-06-17T06:26:36.273Z,10.15
2023-06-17T06:29:09.652Z,9.75
2023-06-17T06:31:44.902Z,11.73
2023-06-17T06:34:15.201Z,11.23
2023-06-17T06:36:49.905Z,12.20
2023-06-17T06:39:18.670Z,11.90
2023-06-17T06:41:47.977Z,11.43
2023-06-17T06:44:35.102Z,9.63
2023-06-17T06:47:03.798Z,11.18
2023-06-17T06:49:33.164Z,10.77
2023-06-17T06:52:03.555Z,9.43
2023-06-17T06:54:32.177Z,11.75
2023-06-17T06:57:00.676Z,10.25
2023-06-17T06:59:31.517Z,9.25
2023-06-17T07:02:00.400Z,8.60
2023-06-17T07:04:29.694Z,7.85
2023-06-17T07:07:01.103Z,8.82
2023-06-17T07:09:36.781Z,10.18
2023-06-17T07:12:05.990Z,10.35
2023-06-17T07:14:36.722Z,10.82
2023-06-17T07:17:05.597Z,10.73
2023-06-17T07:19:34.893Z,10.43
2023-06-17T07:22:04.315Z,11.68
2023-06-17T07:24:33.348Z,10.10
2023-06-17T07:27:03.924Z,9.68
2023-06-17T07:29:35.621Z,13.40
2023-06-17T07:32:08.036Z,9.68
2023-06-17T07:34:37.744Z,9.93
2023-06-17T07:37:07.977Z,12.80
2023-06-17T07:39:37.469Z,8.23
2023-06-17T07:42:08.140Z,11.10
2023-06-17T07:44:36.513Z,9.13
2023-06-17T07:47:08.638Z,9.15
2023-06-17T07:49:37.880Z,9.48
2023-06-17T07:52:07.438Z,7.07
2023-06-17T07:54:36.719Z,7.55
2023-06-17T07:59:56.267Z,10.32
2023-06-17T08:02:24.860Z,11.98
2023-06-17T08:04:57.057Z,8.05
2023-06-17T08:07:40.502Z,7.55
2023-06-17T08:10:10.281Z,8.73
2023-06-17T08:12:40.730Z,11.35
2023-06-17T08:15:10.504Z,7.22
2023-06-17T08:17:43.357Z,6.82
2023-06-17T08:20:15.208Z,8.02
2023-06-17T08:22:49.806Z,8.07
2023-06-17T08:25:18.401Z,4.93
2023-06-17T08:27:53.765Z,6.05
2023-06-17T08:30:26.558Z,6.22
2023-06-17T08:32:55.154Z,6.68
2023-06-17T08:35:25.773Z,9.60
2023-06-17T08:37:55.455Z,7.10
2023-06-17T08:40:24.758Z,6.18
2023-06-17T08:42:59.413Z,6.60
2023-06-17T08:45:28.432Z,7.85
2023-06-17T08:47:58.530Z,6.05
2023-06-17T08:50:34.663Z,7.50
2023-06-17T08:53:04.818Z,10.48
2023-06-17T08:55:37.773Z,5.13
2023-06-17T08:58:08.235Z,7.47
2023-06-17T09:00:37.470Z,8.43
2023-06-17T09:03:10.622Z,8.43
2023-06-17T09:05:39.181Z,6.03
2023-06-17T09:08:07.860Z,7.57
2023-06-17T09:10:47.101Z,6.80
2023-06-17T09:13:16.960Z,8.75
2023-06-17T09:15:46.178Z,7.22
2023-06-17T09:18:18.287Z,7.88
2023-06-17T09:20:53.331Z,7.15
2023-06-17T09:23:23.244Z,6.72
2023-06-17T09:26:02.227Z,9.27
2023-06-17T09:28:32.943Z,5.95
2023-06-17T09:31:08.878Z,9.93
2023-06-17T09:33:37.639Z,7.13
2023-06-17T09:36:06.840Z,6.57
2023-06-17T09:38:38.976Z,10.00
2023-06-17T09:41:08.434Z,9.02
2023-06-17T09:43:42.672Z,7.97
2023-06-17T09:46:13.481Z,8.02
2023-06-17T09:48:45.952Z,6.03
2023-06-17T09:51:15.508Z,7.55
2023-06-17T09:53:48.390Z,10.32
2023-06-17T09:56:20.239Z,10.43
2023-06-17T09:58:52.118Z,8.48
2023-06-17T10:01:20.891Z,7.05
2023-06-17T10:03:49.472Z,7.07
2023-06-17T10:06:20.885Z,6.03
2023-06-17T10:08:51.398Z,8.07
2023-06-17T10:11:22.405Z,8.65
2023-06-17T10:13:58.925Z,5.70
2023-06-17T10:16:30.120Z,9.10
2023-06-17T10:18:59.905Z,7.13
2023-06-17T10:21:29.245Z,7.75
2023-06-17T10:23:59.801Z,9.73
2023-06-17T10:26:32.259Z,8.77
2023-06-17T10:29:07.468Z,8.73
2023-06-17T10:31:40.603Z,7.38
2023-06-17T10:34:19.343Z,6.85
2023-06-17T10:36:50.858Z,9.38
2023-06-17T10:39:19.508Z,7.82
2023-06-17T10:42:01.718Z,6.25
2023-06-17T10:44:43.416Z,7.53
2023-06-17T10:47:31.555Z,8.52
2023-06-17T10:50:03.265Z,7.20
2023-06-17T10:52:32.470Z,6.40
2023-06-17T10:55:01.038Z,11.02
2023-06-17T10:57:33.362Z,6.80
2023-06-17T11:00:08.194Z,6.90
2023-06-17T11:02:36.898Z,10.18
2023-06-17T11:05:06.757Z,9.95
2023-06-17T11:07:35.307Z,10.85
2023-06-17T11:10:04.245Z,8.77
2023-06-17T11:12:35.812Z,6.93
2023-06-17T11:15:06.160Z,6.13
2023-06-17T11:17:35.727Z,6.53
2023-06-17T11:20:07.030Z,8.13
2023-06-17T11:22:39.517Z,6.22
2023-06-17T11:28:20.491Z,6.65
2023-06-17T11:30:53.320Z,7.75
2023-06-17T11:33:25.105Z,6.95
2023-06-17T11:35:55.568Z,7.85
2023-06-17T11:38:25.666Z,6.55
2023-06-17T11:40:57.710Z,9.75
2023-06-17T11:43:27.623Z,5.40
2023-06-17T11:45:59.548Z,7.90
2023-06-17T11:48:31.509Z,8.93
2023-06-17T11:51:02.323Z,10.55
2023-06-17T11:53:34.610Z,13.27
2023-06-17T11:56:08.058Z,12.70
2023-06-17T11:58:38.748Z,10.07
2023-06-17T12:01:09.532Z,9.45
2023-06-17T12:03:38.860Z,7.78
2023-06-17T12:06:07.787Z,7.65
2023-06-17T12:08:36.925Z,8.07
2023-06-17T12:11:08.969Z,10.75
2023-06-17T12:13:42.860Z,7.43
2023-06-17T12:16:25.256Z,8.77
2023-06-17T12:18:54.036Z,6.60
2023-06-17T12:21:23.340Z,6.70
2023-06-17T12:23:54.824Z,8.27
2023-06-17T12:26:25.082Z,7.78
2023-06-17T12:28:53.789Z,8.43
2023-06-17T12:31:23.998Z,5.75
2023-06-17T12:33:52.417Z,6.40
2023-06-17T12:36:21.181Z,7.38
2023-06-17T12:38:50.553Z,6.47
2023-06-17T12:41:19.179Z,6.97
2023-06-17T12:46:18.372Z,6.85
2023-06-17T12:48:49.979Z,8.07
2023-06-17T12:51:18.442Z,10.43
2023-06-17T12:53:46.918Z,6.90
2023-06-17T12:56:15.493Z,7.32
2023-06-17T12:58:44.599Z,7.65
2023-06-17T13:01:13.112Z,7.18
2023-06-17T13:03:42.078Z,6.25
2023-06-17T13:06:11.861Z,11.18
2023-06-17T13:08:40.418Z,7.68
2023-06-17T13:11:09.021Z,8.85
2023-06-17T13:13:38.932Z,5.97
2023-06-17T13:16:07.938Z,8.25
2023-06-17T13:18:36.778Z,8.80
2023-06-17T13:21:05.955Z,6.80
2023-06-17T13:23:36.177Z,8.50
2023-06-17T13:26:05.464Z,7.00
2023-06-17T13:28:34.621Z,6.15
2023-06-17T13:31:03.982Z,9.73
2023-06-17T13:33:32.634Z,11.13
2023-06-17T13:36:01.174Z,6.78
2023-06-17T13:38:29.566Z,7.47
2023-06-17T13:41:00.477Z,7.47
2023-06-17T13:43:30.084Z,5.65
2023-06-17T13:45:59.157Z,6.68
2023-06-17T13:48:27.629Z,8.32
2023-06-17T13:50:57.247Z,8.90
2023-06-17T13:53:25.916Z,9.25
2023-06-17T13:55:55.146Z,6.80
2023-06-17T13:58:25.538Z,8.10
2023-06-17T14:00:54.711Z,8.57
2023-06-17T14:03:25.801Z,10.05
2023-06-17T14:05:54.553Z,7.10
2023-06-17T14:08:23.997Z,6.90
2023-06-17T14:10:54.614Z,9.10
2023-06-17T14:13:23.419Z,7.13
2023-06-17T14:15:55.606Z,8.40
2023-06-17T14:18:24.117Z,8.85
2023-06-17T14:20:52.920Z,10.02
2023-06-17T14:23:21.427Z,9.30
2023-06-17T14:25:50.306Z,9.85
2023-06-17T14:28:19.994Z,8.43
2023-06-17T14:30:49.637Z,6.47
2023-06-17T14:33:20.520Z,8.57
2023-06-17T14:35:49.024Z,7.28
2023-06-17T14:38:17.608Z,5.80
2023-06-17T14:40:46.312Z,7.43
2023-06-17T14:43:14.768Z,5.68
2023-06-17T14:45:43.679Z,7.20
2023-06-17T14:48:13.729Z,6.22
2023-06-17T14:50:44.663Z,7.55
2023-06-17T14:53:13.121Z,8.48
2023-06-17T14:55:42.010Z,9.45
2023-06-17T14:58:11.455Z,12.13
2023-06-17T15:00:40.329Z,9.02
2023-06-17T15:03:11.368Z,8.70
2023-06-17T15:05:43.125Z,8.45
2023-06-17T15:08:13.139Z,8.50
2023-06-17T15:10:41.569Z,6.53
2023-06-17T15:13:10.276Z,6.85
2023-06-17T15:15:45.241Z,8.93
2023-06-17T15:18:13.866Z,5.75
2023-06-17T15:20:42.366Z,6.90
2023-06-17T15:23:12.339Z,5.55
2023-06-17T15:25:42.423Z,8.60
2023-06-17T15:28:10.842Z,6.78
2023-06-17T15:30:42.913Z,9.18
2023-06-17T15:33:11.792Z,5.30
2023-06-17T15:35:40.462Z,8.82
2023-06-17T15:38:08.913Z,8.43
2023-06-17T15:40:37.341Z,7.88
2023-06-17T15:43:08.590Z,7.57
2023-06-17T15:45:37.089Z,7.95
2023-06-17T15:48:05.721Z,6.47
2023-06-17T15:50:34.177Z,6.72
2023-06-17T15:53:02.728Z,7.97
2023-06-17T15:55:31.541Z,8.63
2023-06-17T15:58:00.209Z,8.70
2023-06-17T16:00:31.626Z,12.05
2023-06-17T16:03:00.219Z,6.60
2023-06-17T16:05:28.690Z,8.48
2023-06-17T16:07:58.347Z,7.65
2023-06-17T16:10:27.675Z,7.22
2023-06-17T16:12:56.406Z,6.40
2023-06-17T16:15:25.294Z,6.68
2023-06-17T16:17:55.148Z,7.13
2023-06-17T16:20:23.895Z,7.22
2023-06-17T16:22:54.740Z,9.25
2023-06-17T16:25:23.623Z,9.93
2023-06-17T16:27:51.998Z,6.47
2023-06-17T16:33:17.460Z,8.40
2023-06-17T16:35:46.359Z,8.10
2023-06-17T16:38:16.255Z,7.22
2023-06-17T16:40:44.725Z,6.18
2023-06-17T16:43:15.884Z,6.45
2023-06-17T16:45:44.511Z,8.77
2023-06-17T16:48:14.334Z,6.05
2023-06-17T16:50:54.138Z,5.82
2023-06-17T16:53:23.532Z,6.88
2023-06-17T16:55:52.653Z,6.80
2023-06-17T16:58:50.041Z,7.15
2023-06-17T17:01:18.674Z,8.02
2023-06-17T17:03:47.343Z,7.43
2023-06-17T17:06:17.204Z,8.35
2023-06-17T17:08:49.754Z,8.00
2023-06-17T17:11:18.660Z,8.27
2023-06-17T17:13:52.809Z,7.82
2023-06-17T17:16:26.004Z,8.85
2023-06-17T17:18:55.742Z,7.05
2023-06-17T17:21:26.209Z,9.40
2023-06-17T17:23:54.666Z,7.35
2023-06-17T17:26:23.065Z,7.97
2023-06-17T17:28:51.986Z,9.73
2023-06-17T17:31:22.612Z,8.02
2023-06-17T17:33:52.188Z,9.13
2023-06-17T17:36:20.859Z,6.95
2023-06-17T17:38:50.682Z,16.05
2023-06-17T17:41:20.050Z,8.07
2023-06-17T17:43:48.560Z,9.43
2023-06-17T17:46:16.988Z,12.23
2023-06-17T17:48:45.464Z,10.35
2023-06-17T17:51:13.858Z,13.68
2023-06-17T17:53:42.433Z,11.85
2023-06-17T17:56:12.288Z,21.70
2023-06-17T17:58:42.445Z,13.57
2023-06-17T18:01:10.904Z,15.05
2023-06-17T18:03:40.736Z,12.13
2023-06-17T18:06:09.457Z,8.85
2023-06-17T18:08:40.075Z,13.55
2023-06-17T18:11:08.834Z,10.95
2023-06-17T18:13:38.533Z,9.55
2023-06-17T18:16:07.585Z,9.18
2023-06-17T18:18:36.333Z,7.88
2023-06-17T18:21:04.874Z,7.82
2023-06-17T18:23:33.416Z,8.73
2023-06-17T18:26:02.161Z,9.10
2023-06-17T18:28:30.567Z,10.60
2023-06-17T18:31:04.300Z,8.85
2023-06-17T18:33:32.797Z,6.97
2023-06-17T18:36:02.301Z,8.45
2023-06-17T18:38:30.775Z,8.10
2023-06-17T18:40:59.198Z,10.82
2023-06-17T18:43:27.980Z,7.03
2023-06-17T18:45:56.389Z,7.55
2023-06-17T18:48:27.063Z,9.27
2023-06-17T18:50:55.948Z,10.25
2023-06-17T18:53:24.449Z,7.22
2023-06-17T18:55:55.249Z,8.75
2023-06-17T18:58:24.913Z,10.10
2023-06-17T19:00:53.561Z,8.80
2023-06-17T19:03:23.269Z,7.30
2023-06-17T19:05:53.736Z,7.95
2023-06-17T19:08:23.635Z,8.93
2023-06-17T19:10:52.338Z,9.32
2023-06-17T19:13:20.834Z,9.30
2023-06-17T19:15:49.367Z,8.73
2023-06-17T19:18:18.179Z,7.28
2023-06-17T19:20:47.080Z,9.88
2023-06-17T19:23:17.379Z,12.63
2023-06-17T19:25:46.249Z,11.45
2023-06-17T19:28:14.821Z,9.23
2023-06-17T19:33:43.535Z,10.07
2023-06-17T19:36:12.096Z,9.98
2023-06-17T19:38:44.276Z,9.02
2023-06-17T19:41:12.773Z,11.18
2023-06-17T19:43:41.563Z,10.18
2023-06-17T19:46:10.220Z,11.25
2023-06-17T19:48:39.156Z,11.70
2023-06-17T19:51:07.737Z,9.18
2023-06-17T19:53:36.448Z,11.30
2023-06-17T19:56:07.630Z,12.20
2023-06-17T19:58:36.955Z,11.75
2023-06-17T20:01:06.152Z,12.00
2023-06-17T20:03:35.077Z,13.43
2023-06-17T20:06:04.709Z,11.63
2023-06-17T20:08:33.258Z,9.65
2023-06-17T20:11:01.763Z,10.52
2023-06-17T20:13:31.717Z,10.23
2023-06-17T20:16:00.231Z,10.98
2023-06-17T20:18:28.717Z,11.27
2023-06-17T20:20:58.306Z,10.52
2023-06-17T20:23:27.982Z,13.25
2023-06-17T20:25:56.463Z,11.55
2023-06-17T20:28:24.849Z,13.57
2023-06-17T20:30:54.680Z,13.77
2023-06-17T20:33:23.195Z,11.52
2023-06-17T20:35:55.197Z,11.25
2023-06-17T20:38:23.665Z,12.90
2023-06-17T20:40:52.667Z,11.85
2023-06-17T20:43:21.640Z,10.30
2023-06-17T20:45:51.477Z,11.98
2023-06-17T20:48:21.482Z,11.38
2023-06-17T20:50:51.000Z,12.98
2023-06-17T20:53:23.295Z,16.13
2023-06-17T20:55:53.206Z,14.13
2023-06-17T20:58:21.711Z,14.10
2023-06-17T21:00:50.875Z,13.20
2023-06-17T21:03:20.797Z,13.25
2023-06-17T21:05:49.386Z,11.77
2023-06-17T21:08:19.046Z,12.15
2023-06-17T21:10:49.235Z,13.30
2023-06-17T21:13:19.710Z,14.35
2023-06-17T21:15:48.132Z,12.50
2023-06-17T21:18:16.845Z,13.65
2023-06-17T21:20:46.753Z,15.07
2023-06-17T21:23:15.435Z,17.27
2023-06-17T21:25:44.235Z,14.75
2023-06-17T21:28:12.682Z,14.73
2023-06-17T21:30:44.236Z,15.38
2023-06-17T21:33:15.954Z,14.07
2023-06-17T21:35:44.497Z,13.52
2023-06-17T21:38:14.468Z,15.55
2023-06-17T21:40:43.489Z,14.35
2023-06-17T21:43:12.150Z,15.80
2023-06-17T21:45:40.823Z,37.42
2023-06-17T21:48:09.318Z,14.50
2023-06-17T21:50:37.957Z,15.38
2023-06-17T21:53:07.318Z,16.30
2023-06-17T21:55:37.388Z,19.05
2023-06-17T21:58:05.847Z,18.50
2023-06-17T22:00:34.574Z,16.17
2023-06-17T22:03:03.053Z,18.65
2023-06-17T22:05:31.574Z,19.20
2023-06-17T22:08:00.066Z,15.80
2023-06-17T22:10:28.498Z,18.63
2023-06-17T22:12:58.704Z,17.70
2023-06-17T22:15:27.287Z,17.27
2023-06-17T22:17:55.957Z,17.30
2023-06-17T22:20:24.975Z,15.80
2023-06-17T22:22:53.457Z,16.83
2023-06-17T22:25:21.961Z,17.98
2023-06-17T22:27:50.585Z,18.35
2023-06-17T22:30:23.070Z,14.88
2023-06-17T22:32:51.882Z,17.35
2023-06-17T22:35:20.487Z,14.48
2023-06-17T22:37:49.219Z,17.55
2023-06-17T22:40:17.864Z,14.23
2023-06-17T22:42:46.355Z,14.95
2023-06-17T22:45:15.067Z,20.23
2023-06-17T22:47:44.989Z,16.05
2023-06-17T22:50:13.458Z,17.17
2023-06-17T22:52:41.950Z,17.83
2023-06-17T22:55:11.033Z,16.27
2023-06-17T22:57:40.254Z,13.05
2023-06-17T23:00:09.620Z,16.00
2023-06-17T23:02:38.137Z,15.30
2023-06-17T23:05:08.331Z,14.90
2023-06-17T23:07:36.875Z,18.95
2023-06-17T23:10:05.535Z,17.02
2023-06-17T23:12:34.105Z,15.38
2023-06-17T23:15:02.833Z,17.25
2023-06-17T23:17:33.742Z,17.88
2023-06-17T23:20:02.935Z,18.30
2023-06-17T23:22:34.764Z,16.52
2023-06-17T23:25:07.514Z,18.08
2023-06-17T23:27:37.171Z,19.50
2023-06-17T23:30:06.250Z,15.85
2023-06-17T23:32:35.056Z,16.85
2023-06-17T23:35:04.057Z,14.32
2023-06-17T23:37:34.300Z,18.73
2023-06-17T23:40:04.621Z,17.80
2023-06-17T23:42:33.198Z,18.73
2023-06-17T23:45:02.038Z,19.25
2023-06-17T23:47:30.572Z,18.50
2023-06-17T23:49:59.456Z,18.63
2023-06-17T23:52:27.937Z,18.08
2023-06-17T23:54:58.362Z,17.90
2023-06-17T23:57:28.269Z,18.52
2023-06-17T23:59:56.709Z,16.95
